Time;durP1;ratioP1;P1;durP2;ratioP2;P2;SDS_P1;SDS_P2;PMS_P1;PMS_P2;Temp;Humidity;BMP_temperature;BMP_pressure;BME280_temperature;BME280_humidity;BME280_pressure;Samples;Min_cycle;Max_cycle;Signal;HPM_P1;HPM_P2
2022/06/25 00:00:59;;;;;;;2.03;1.30;;;24.20;63.00;;;;;;4491630;31;20460;-72
2022/06/25 00:03:25;;;;;;;3.00;1.50;;;24.20;63.10;;;;;;4492327;31;20116;-72
2022/06/25 00:05:51;;;;;;;1.38;1.23;;;24.20;63.10;;;;;;4492649;31;20080;-71
2022/06/25 00:08:17;;;;;;;1.55;1.23;;;24.20;63.10;;;;;;4492323;31;20069;-72
2022/06/25 00:10:43;;;;;;;1.50;1.20;;;24.20;63.10;;;;;;4492617;31;20234;-72
2022/06/25 00:13:10;;;;;;;2.53;1.30;;;24.20;63.00;;;;;;4491088;31;20096;-72
2022/06/25 00:15:36;;;;;;;1.60;1.23;;;24.20;63.00;;;;;;4491288;31;20156;-72
2022/06/25 00:18:02;;;;;;;1.67;1.33;;;24.20;63.00;;;;;;4491257;31;20568;-72
2022/06/25 00:20:28;;;;;;;1.45;1.35;;;24.20;63.00;;;;;;4492296;31;20521;-72
2022/06/25 00:22:54;;;;;;;1.80;1.20;;;24.20;63.00;;;;;;4492439;31;20089;-72
2022/06/25 00:25:20;;;;;;;1.77;1.30;;;24.20;62.90;;;;;;4492548;31;20368;-72
2022/06/25 00:27:46;;;;;;;1.42;1.33;;;24.20;62.90;;;;;;4491138;31;20125;-72
2022/06/25 00:30:13;;;;;;;1.33;1.20;;;24.20;62.90;;;;;;4492261;31;20112;-72
2022/06/25 00:32:39;;;;;;;1.38;1.27;;;24.20;62.90;;;;;;4491309;31;20285;-71
2022/06/25 00:35:05;;;;;;;3.38;1.20;;;24.20;62.80;;;;;;4492507;31;20457;-72
2022/06/25 00:37:32;;;;;;;1.42;1.23;;;24.20;62.80;;;;;;4492006;31;20073;-72
2022/06/25 00:39:58;;;;;;;1.50;1.40;;;24.20;62.80;;;;;;4492011;31;20553;-72
2022/06/25 00:42:23;;;;;;;1.45;1.25;;;24.20;62.80;;;;;;4492187;31;20165;-72
2022/06/25 00:44:49;;;;;;;1.80;1.30;;;24.20;62.70;;;;;;4492041;31;20053;-71
2022/06/25 00:47:15;;;;;;;1.77;1.25;;;24.20;62.70;;;;;;4492153;31;20537;-71
2022/06/25 00:49:42;;;;;;;1.60;1.10;;;24.20;62.80;;;;;;4492435;31;20084;-72
2022/06/25 00:52:18;;;;;;;1.50;1.23;;;24.10;62.70;;;;;;4492110;31;20513;-72
2022/06/25 00:54:58;;;;;;;2.35;1.45;;;24.20;62.70;;;;;;4492192;31;20203;-72
2022/06/25 00:57:26;;;;;;;1.45;1.00;;;24.20;62.60;;;;;;4492100;31;20106;-72
2022/06/25 00:59:57;;;;;;;1.33;1.20;;;24.20;62.70;;;;;;4492073;31;20113;-72
2022/06/25 01:02:23;;;;;;;1.38;1.10;;;24.10;62.60;;;;;;4492544;31;20095;-72
2022/06/25 01:04:50;;;;;;;1.30;1.20;;;24.10;62.60;;;;;;4491419;31;20166;-71
2022/06/25 01:07:17;;;;;;;3.80;1.20;;;24.10;62.60;;;;;;4491481;31;20167;-72
2022/06/25 01:09:46;;;;;;;1.30;1.20;;;24.10;62.60;;;;;;4492008;32;20077;-71
2022/06/25 01:12:12;;;;;;;1.63;0.88;;;24.10;62.60;;;;;;4491660;32;20076;-72
2022/06/25 01:14:40;;;;;;;1.35;1.10;;;24.10;62.50;;;;;;4492358;32;20092;-72
2022/06/25 01:17:08;;;;;;;1.92;1.23;;;24.10;62.60;;;;;;4491842;32;20105;-71
2022/06/25 01:19:35;;;;;;;1.10;1.00;;;24.10;62.50;;;;;;4491929;32;20065;-72
2022/06/25 01:22:08;;;;;;;1.27;1.17;;;24.10;62.50;;;;;;4490537;32;20083;-72
2022/06/25 01:24:34;;;;;;;1.35;1.25;;;24.10;62.50;;;;;;4491825;32;20410;-71
2022/06/25 01:27:00;;;;;;;1.15;1.05;;;24.10;62.50;;;;;;4491749;32;20061;-72
2022/06/25 01:29:26;;;;;;;1.50;1.25;;;24.10;62.40;;;;;;4491765;32;20258;-71
2022/06/25 01:31:52;;;;;;;1.33;1.23;;;24.10;62.40;;;;;;4491767;32;20506;-71
2022/06/25 01:34:20;;;;;;;1.30;1.20;;;24.10;62.40;;;;;;4491722;32;20081;-72
2022/06/25 01:36:46;;;;;;;1.17;1.08;;;24.10;62.40;;;;;;4491449;32;20105;-71
2022/06/25 01:39:12;;;;;;;1.10;1.00;;;24.10;62.40;;;;;;4491274;32;20073;-71
2022/06/25 01:41:38;;;;;;;1.40;1.23;;;24.00;62.30;;;;;;4491615;32;20178;-71
2022/06/25 01:44:04;;;;;;;1.15;1.00;;;24.00;62.40;;;;;;4491381;32;20150;-71
2022/06/25 01:46:30;;;;;;;1.42;1.33;;;24.00;62.30;;;;;;4491388;32;20084;-71
2022/06/25 01:48:56;;;;;;;1.75;1.20;;;24.00;62.30;;;;;;4491397;32;20136;-71
2022/06/25 01:51:21;;;;;;;1.20;1.10;;;24.00;62.30;;;;;;4490383;32;20070;-71
2022/06/25 01:53:47;;;;;;;1.75;1.35;;;24.00;62.30;;;;;;4491449;32;20155;-71
2022/06/25 01:56:13;;;;;;;2.00;1.15;;;24.00;62.30;;;;;;4490288;32;20478;-72
2022/06/25 01:58:39;;;;;;;3.13;1.30;;;24.00;62.30;;;;;;4491550;32;20526;-71
2022/06/25 02:01:05;;;;;;;1.52;1.00;;;24.00;62.30;;;;;;4490524;32;20084;-71
2022/06/25 02:03:31;;;;;;;1.10;1.00;;;24.00;62.20;;;;;;4491492;32;20081;-71
2022/06/25 02:05:57;;;;;;;1.80;1.23;;;24.00;62.30;;;;;;4491608;32;20053;-71
2022/06/25 02:08:30;;;;;;;1.40;0.95;;;24.00;62.20;;;;;;4491473;32;20159;-73
2022/06/25 02:10:57;;;;;;;1.30;1.20;;;24.00;62.20;;;;;;4491575;32;20554;-71
2022/06/25 02:13:23;;;;;;;1.30;1.20;;;24.00;62.20;;;;;;4491521;32;20183;-71
2022/06/25 02:15:50;;;;;;;1.20;1.10;;;24.00;62.20;;;;;;4490141;32;20096;-71
2022/06/25 02:18:16;;;;;;;1.13;1.00;;;24.00;62.20;;;;;;4492541;31;20585;-71
2022/06/25 02:20:42;;;;;;;1.30;1.20;;;24.00;62.20;;;;;;4494230;31;20069;-71
2022/06/25 02:23:09;;;;;;;1.67;1.00;;;24.00;62.20;;;;;;4494101;31;20499;-72
2022/06/25 02:25:36;;;;;;;1.73;1.05;;;24.00;62.20;;;;;;4494185;31;20214;-72
2022/06/25 02:28:02;;;;;;;1.65;0.82;;;24.00;62.20;;;;;;4493119;31;20061;-71
2022/06/25 02:30:28;;;;;;;0.88;0.88;;;24.00;62.20;;;;;;4493814;31;20403;-71
2022/06/25 02:32:54;;;;;;;1.55;1.00;;;24.00;62.20;;;;;;4494311;31;20079;-71
2022/06/25 02:35:20;;;;;;;1.23;1.08;;;24.00;62.10;;;;;;4494209;31;20085;-71
2022/06/25 02:37:45;;;;;;;1.52;1.17;;;24.00;62.10;;;;;;4493870;31;20585;-71
2022/06/25 02:40:12;;;;;;;0.98;0.90;;;23.90;62.10;;;;;;4493870;31;20096;-72
2022/06/25 02:42:39;;;;;;;1.30;1.00;;;23.90;62.00;;;;;;4493718;31;20541;-71
2022/06/25 02:45:06;;;;;;;0.95;0.93;;;23.90;62.10;;;;;;4493828;31;20231;-71
2022/06/25 02:47:33;;;;;;;3.05;1.15;;;23.90;62.00;;;;;;4492525;31;20162;-71
2022/06/25 02:49:59;;;;;;;1.23;1.08;;;23.90;62.00;;;;;;4493851;31;20365;-71
2022/06/25 02:52:25;;;;;;;0.90;0.90;;;23.90;62.00;;;;;;4493785;31;20085;-72
2022/06/25 02:54:51;;;;;;;1.20;1.10;;;23.90;62.00;;;;;;4492396;31;20139;-71
2022/06/25 03:00:02;;;;;;;1.35;0.90;;;23.90;61.90;;;;;;4493826;31;20081;-71
2022/06/25 03:02:28;;;;;;;1.20;0.93;;;23.90;61.90;;;;;;4492333;31;20450;-72
2022/06/25 03:04:54;;;;;;;1.02;0.90;;;23.90;62.00;;;;;;4493251;31;20091;-72
2022/06/25 03:07:20;;;;;;;1.30;0.90;;;23.90;61.90;;;;;;4492230;31;20061;-71
2022/06/25 03:09:46;;;;;;;1.10;1.00;;;23.90;61.90;;;;;;4493533;31;20112;-71
2022/06/25 03:12:12;;;;;;;1.70;1.10;;;23.80;61.80;;;;;;4492071;31;20483;-71
2022/06/25 03:14:38;;;;;;;1.42;1.20;;;23.90;61.80;;;;;;4493454;31;20080;-71
2022/06/25 03:17:05;;;;;;;0.90;0.90;;;23.90;61.80;;;;;;4493521;31;20085;-71
2022/06/25 03:19:31;;;;;;;3.10;1.20;;;23.90;61.80;;;;;;4493205;31;20227;-71
2022/06/25 03:21:57;;;;;;;1.20;1.10;;;23.90;61.80;;;;;;4493316;31;20150;-71
2022/06/25 03:24:23;;;;;;;1.20;1.00;;;23.80;61.70;;;;;;4492211;31;20130;-71
2022/06/25 03:26:48;;;;;;;1.20;1.10;;;23.90;61.80;;;;;;4492992;31;20143;-72
2022/06/25 03:29:14;;;;;;;1.02;0.93;;;23.80;61.70;;;;;;4491865;31;20087;-71
2022/06/25 03:31:40;;;;;;;0.93;0.90;;;23.80;61.70;;;;;;4493424;31;20088;-71
2022/06/25 03:34:06;;;;;;;1.58;1.02;;;23.80;61.70;;;;;;4493077;31;20620;-71
2022/06/25 03:36:33;;;;;;;1.30;0.90;;;23.80;61.70;;;;;;4493176;31;20073;-71
2022/06/25 03:38:59;;;;;;;1.23;1.13;;;23.80;61.70;;;;;;4492916;31;20191;-71
2022/06/25 03:41:38;;;;;;;2.00;1.00;;;23.80;61.70;;;;;;4492999;31;20081;-71
2022/06/25 03:44:05;;;;;;;1.55;1.15;;;23.80;61.70;;;;;;4493345;31;20085;-71
2022/06/25 03:46:33;;;;;;;1.48;0.93;;;23.80;61.70;;;;;;4492947;31;20494;-71
2022/06/25 03:48:59;;;;;;;1.10;1.00;;;23.80;61.70;;;;;;4492908;31;20077;-71
2022/06/25 03:51:26;;;;;;;0.80;0.80;;;23.80;61.70;;;;;;4492881;31;20177;-72
2022/06/25 03:53:52;;;;;;;1.00;0.90;;;23.80;61.70;;;;;;4492860;31;20506;-71
2022/06/25 03:56:18;;;;;;;2.30;1.10;;;23.80;61.70;;;;;;4491886;31;20073;-71
2022/06/25 03:58:43;;;;;;;0.80;0.80;;;23.80;61.60;;;;;;4492788;31;20231;-71
2022/06/25 04:01:09;;;;;;;1.10;1.00;;;23.80;61.60;;;;;;4492681;31;20061;-73
2022/06/25 04:03:35;;;;;;;0.98;0.90;;;23.80;61.70;;;;;;4492868;31;20089;-71
2022/06/25 04:06:02;;;;;;;1.23;1.00;;;23.80;61.60;;;;;;4491637;31;20082;-71
2022/06/25 04:08:28;;;;;;;1.10;1.00;;;23.80;61.60;;;;;;4492381;31;20085;-72
2022/06/25 04:10:54;;;;;;;0.98;0.80;;;23.80;61.60;;;;;;4491427;31;20584;-71
2022/06/25 04:13:20;;;;;;;1.02;0.90;;;23.80;61.70;;;;;;4492621;31;20064;-71
2022/06/25 04:15:46;;;;;;;1.05;0.95;;;23.80;61.70;;;;;;4492529;31;20182;-71
2022/06/25 04:18:13;;;;;;;2.30;1.00;;;23.80;61.60;;;;;;4492255;31;20085;-71
2022/06/25 04:20:39;;;;;;;1.25;1.00;;;23.80;61.60;;;;;;4492134;31;20191;-71
2022/06/25 04:23:05;;;;;;;1.00;0.90;;;23.70;61.50;;;;;;4492381;31;20069;-71
2022/06/25 04:25:32;;;;;;;1.30;1.10;;;23.80;61.60;;;;;;4492390;31;20081;-71
2022/06/25 04:30:42;;;;;;;1.00;0.93;;;23.70;61.50;;;;;;4492625;31;20520;-71
2022/06/25 04:33:08;;;;;;;1.10;1.00;;;23.80;61.60;;;;;;4491210;31;20077;-71
2022/06/25 04:35:34;;;;;;;1.10;0.88;;;23.80;61.60;;;;;;4492283;31;20061;-71
2022/06/25 04:38:00;;;;;;;0.80;0.80;;;23.70;61.50;;;;;;4491877;31;20084;-71
2022/06/25 04:40:28;;;;;;;0.80;0.80;;;23.70;61.60;;;;;;4491729;31;20649;-71
2022/06/25 04:42:54;;;;;;;0.88;0.70;;;23.70;61.50;;;;;;4491127;31;20407;-72
2022/06/25 04:45:19;;;;;;;1.33;0.80;;;23.70;61.50;;;;;;4492335;31;20080;-71
2022/06/25 04:47:45;;;;;;;1.13;1.10;;;23.70;61.60;;;;;;4492393;31;20061;-71
2022/06/25 04:50:11;;;;;;;1.50;0.70;;;23.70;61.50;;;;;;4492203;31;20061;-71
2022/06/25 04:52:37;;;;;;;0.70;0.70;;;23.70;61.60;;;;;;4491891;31;20079;-71
2022/06/25 04:55:03;;;;;;;1.08;1.00;;;23.70;61.50;;;;;;4491065;31;20491;-71
2022/06/25 04:57:29;;;;;;;0.80;0.80;;;23.70;61.50;;;;;;4492030;31;20137;-71
2022/06/25 04:59:55;;;;;;;1.17;0.90;;;23.70;61.50;;;;;;4490951;31;20503;-71
2022/06/25 05:02:21;;;;;;;1.13;0.90;;;23.70;61.50;;;;;;4492007;31;20131;-71
2022/06/25 05:04:47;;;;;;;1.10;1.00;;;23.70;61.50;;;;;;4491907;31;20178;-71
2022/06/25 05:07:12;;;;;;;1.25;1.15;;;23.70;61.40;;;;;;4491980;31;20081;-71
2022/06/25 05:09:39;;;;;;;0.95;0.90;;;23.70;61.50;;;;;;4490668;31;20150;-71
2022/06/25 05:12:05;;;;;;;0.90;0.90;;;23.70;61.40;;;;;;4491837;32;20541;-71
2022/06/25 05:14:31;;;;;;;0.82;0.82;;;23.60;61.40;;;;;;4491943;32;20077;-71
2022/06/25 05:16:57;;;;;;;0.98;0.98;;;23.70;61.50;;;;;;4491845;32;20101;-71
2022/06/25 05:19:23;;;;;;;1.85;0.90;;;23.70;61.50;;;;;;4491847;32;20068;-71
2022/06/25 05:21:49;;;;;;;0.88;0.88;;;23.70;61.40;;;;;;4491813;32;20072;-71
2022/06/25 05:24:15;;;;;;;1.17;0.90;;;23.70;61.50;;;;;;4491980;32;20234;-71
2022/06/25 05:26:41;;;;;;;1.20;0.90;;;23.70;61.50;;;;;;4490767;32;20054;-72
2022/06/25 05:29:07;;;;;;;0.98;0.77;;;23.70;61.40;;;;;;4490969;32;20081;-73
2022/06/25 05:31:33;;;;;;;1.42;0.80;;;23.70;61.40;;;;;;4492120;32;20474;-71
2022/06/25 05:33:59;;;;;;;0.82;0.82;;;23.70;61.40;;;;;;4491794;32;20073;-72
2022/06/25 05:36:25;;;;;;;0.93;0.60;;;23.70;62.30;;;;;;4491779;32;20069;-71
2022/06/25 05:38:51;;;;;;;1.38;0.93;;;23.70;61.40;;;;;;4491583;32;20151;-71
2022/06/25 05:41:17;;;;;;;0.80;0.80;;;23.70;61.40;;;;;;4491637;32;20097;-71
2022/06/25 05:43:43;;;;;;;1.30;1.00;;;23.70;61.40;;;;;;4491637;32;20085;-71
2022/06/25 05:46:09;;;;;;;1.05;0.80;;;23.70;61.50;;;;;;4490641;32;20100;-71
2022/06/25 05:48:35;;;;;;;1.10;0.80;;;23.70;61.40;;;;;;4491405;32;20069;-71
2022/06/25 05:51:01;;;;;;;0.60;0.60;;;23.70;62.30;;;;;;4491700;31;20155;-71
2022/06/25 05:53:29;;;;;;;0.90;0.90;;;23.80;61.40;;;;;;4493557;31;20088;-71
2022/06/25 05:55:55;;;;;;;0.77;0.77;;;23.80;61.40;;;;;;4493579;31;20077;-71
2022/06/25 05:58:22;;;;;;;0.90;0.90;;;23.80;61.50;;;;;;4494837;31;20069;-71
2022/06/25 06:00:48;;;;;;;1.02;0.90;;;23.80;61.40;;;;;;4494537;31;20081;-71
2022/06/25 06:03:14;;;;;;;0.98;0.75;;;23.80;61.40;;;;;;4494437;31;20074;-71
2022/06/25 06:05:40;;;;;;;1.10;1.00;;;23.80;61.40;;;;;;4480400;31;20149;-72
2022/06/25 06:08:06;;;;;;;1.05;0.98;;;23.80;61.40;;;;;;4494641;31;20195;-72
2022/06/25 06:10:33;;;;;;;0.73;0.73;;;23.80;61.30;;;;;;4493406;31;20464;-72
2022/06/25 06:12:59;;;;;;;0.80;0.70;;;23.80;61.30;;;;;;4493298;31;20077;-71
2022/06/25 06:15:24;;;;;;;0.70;0.70;;;23.80;61.20;;;;;;4493006;31;20123;-71
2022/06/25 06:17:50;;;;;;;1.58;0.90;;;23.80;61.30;;;;;;4494373;31;20185;-71
2022/06/25 06:20:17;;;;;;;0.60;0.60;;;23.90;61.20;;;;;;4494250;31;20266;-71
2022/06/25 06:22:43;;;;;;;3.15;0.90;;;23.90;61.20;;;;;;4493192;31;20069;-71
2022/06/25 06:25:09;;;;;;;0.80;0.65;;;23.90;61.20;;;;;;4493058;31;20406;-72
2022/06/25 06:27:35;;;;;;;1.00;0.90;;;23.90;61.20;;;;;;4494443;31;20061;-71
2022/06/25 06:30:01;;;;;;;1.50;0.80;;;23.90;61.10;;;;;;4494245;31;20212;-73
2022/06/25 06:32:27;;;;;;;0.88;0.82;;;23.90;61.20;;;;;;4494336;31;20105;-71
2022/06/25 06:34:52;;;;;;;0.93;0.70;;;24.00;61.20;;;;;;4493660;31;20433;-71
2022/06/25 06:37:18;;;;;;;0.77;0.77;;;23.90;61.10;;;;;;4493732;31;20085;-71
2022/06/25 06:39:44;;;;;;;0.75;0.75;;;24.00;61.20;;;;;;4493795;31;20083;-71
2022/06/25 06:42:11;;;;;;;0.65;0.65;;;24.00;61.20;;;;;;4494066;31;20069;-71
2022/06/25 06:44:37;;;;;;;0.75;0.70;;;24.00;61.20;;;;;;4492686;31;20117;-71
2022/06/25 06:47:03;;;;;;;0.60;0.60;;;24.00;61.20;;;;;;4493741;31;20140;-70
2022/06/25 06:49:29;;;;;;;1.20;0.80;;;24.00;61.20;;;;;;4493480;31;20069;-71
2022/06/25 06:51:55;;;;;;;0.88;0.77;;;24.00;61.20;;;;;;4494040;31;20077;-71
2022/06/25 06:54:21;;;;;;;2.33;0.80;;;24.00;61.30;;;;;;4493650;31;20503;-72
2022/06/25 06:56:47;;;;;;;1.10;0.88;;;24.10;61.50;;;;;;4493601;31;20093;-71
2022/06/25 06:59:13;;;;;;;1.05;0.90;;;24.10;61.70;;;;;;4479521;31;20260;-72
2022/06/25 07:01:39;;;;;;;3.10;1.00;;;24.20;62.00;;;;;;4493340;31;20112;-71
2022/06/25 07:04:05;;;;;;;1.52;1.10;;;24.20;62.00;;;;;;4492972;31;20069;-71
2022/06/25 07:06:31;;;;;;;5.63;2.03;;;24.30;62.10;;;;;;4493568;31;20387;-71
2022/06/25 07:08:57;;;;;;;4.15;2.50;;;24.30;62.30;;;;;;4493490;31;20121;-75
2022/06/25 07:11:29;;;;;;;5.97;2.40;;;24.40;62.60;;;;;;4492524;31;20076;-72
2022/06/25 07:13:57;;;;;;;2.80;2.20;;;24.40;62.70;;;;;;4492540;31;20072;-70
2022/06/25 07:16:23;;;;;;;3.88;2.40;;;24.40;62.70;;;;;;4493732;31;20590;-72
2022/06/25 07:18:49;;;;;;;6.13;2.78;;;24.50;62.80;;;;;;4493068;31;20157;-71
2022/06/25 07:21:15;;;;;;;3.75;2.55;;;24.50;62.90;;;;;;4493328;31;20518;-72
2022/06/25 07:23:41;;;;;;;6.07;3.40;;;24.60;62.90;;;;;;4493169;31;20088;-71
2022/06/25 07:26:07;;;;;;;5.13;2.60;;;24.60;62.70;;;;;;4493016;31;20101;-72
2022/06/25 07:28:33;;;;;;;5.60;2.40;;;24.60;62.60;;;;;;4492407;31;20087;-72
2022/06/25 07:30:59;;;;;;;8.57;2.63;;;24.70;62.50;;;;;;4493186;31;20095;-71
2022/06/25 07:33:25;;;;;;;4.15;2.65;;;24.70;62.50;;;;;;4493352;31;20123;-71
2022/06/25 07:35:51;;;;;;;2.78;1.90;;;24.70;62.60;;;;;;4491807;31;20069;-71
2022/06/25 07:38:16;;;;;;;4.55;2.38;;;24.70;62.50;;;;;;4493038;31;20053;-74
2022/06/25 07:40:42;;;;;;;5.97;2.30;;;24.80;62.50;;;;;;4492659;31;20513;-71
2022/06/25 07:43:08;;;;;;;2.88;2.20;;;24.80;62.50;;;;;;4493065;31;20262;-72
2022/06/25 07:45:34;;;;;;;7.57;2.72;;;24.80;62.40;;;;;;4492531;31;20431;-76
2022/06/25 07:48:00;;;;;;;8.30;2.63;;;24.80;62.20;;;;;;4493237;31;20128;-77
2022/06/25 07:53:10;;;;;;;8.38;2.65;;;24.80;61.90;;;;;;4493112;31;20513;-71
2022/06/25 07:55:36;;;;;;;5.57;2.95;;;24.90;61.90;;;;;;4492532;31;20073;-71
2022/06/25 07:58:02;;;;;;;6.05;2.20;;;24.90;61.90;;;;;;4491685;31;20502;-71
2022/06/25 08:00:27;;;;;;;6.22;2.33;;;24.90;61.70;;;;;;4492715;31;20076;-71
2022/06/25 08:02:54;;;;;;;4.63;2.33;;;25.00;61.60;;;;;;4491478;31;20065;-78
2022/06/25 08:05:20;;;;;;;3.90;2.15;;;25.00;61.60;;;;;;4492135;31;20556;-71
2022/06/25 08:07:46;;;;;;;4.28;2.67;;;25.00;61.50;;;;;;4492460;31;20087;-71
2022/06/25 08:10:11;;;;;;;3.88;2.25;;;25.00;61.50;;;;;;4492404;31;20158;-72
2022/06/25 08:12:37;;;;;;;6.72;2.20;;;25.00;61.50;;;;;;4491983;31;20566;-71
2022/06/25 08:15:04;;;;;;;3.13;1.70;;;25.00;61.40;;;;;;4492697;31;20194;-71
2022/06/25 08:17:30;;;;;;;2.60;1.80;;;25.10;61.40;;;;;;4491399;31;20069;-76
2022/06/25 08:19:56;;;;;;;4.05;2.47;;;25.10;61.40;;;;;;4492165;31;20422;-71
2022/06/25 08:22:23;;;;;;;3.83;2.03;;;25.10;61.30;;;;;;4492124;31;20515;-71
2022/06/25 08:24:49;;;;;;;6.05;2.08;;;25.10;61.20;;;;;;4491213;31;20088;-71
2022/06/25 08:27:15;;;;;;;4.43;1.90;;;25.20;61.20;;;;;;4492393;31;20592;-72
2022/06/25 08:29:40;;;;;;;3.20;2.00;;;25.20;61.10;;;;;;4491998;31;20498;-71
2022/06/25 08:32:06;;;;;;;5.45;2.17;;;25.20;61.10;;;;;;4492250;31;20069;-71
2022/06/25 08:34:32;;;;;;;4.72;2.17;;;25.30;61.10;;;;;;4491242;31;20080;-71
2022/06/25 08:36:58;;;;;;;3.90;1.83;;;25.30;61.00;;;;;;4492310;31;20150;-70
2022/06/25 08:39:24;;;;;;;5.15;2.10;;;25.30;60.90;;;;;;4490637;31;20084;-71
2022/06/25 08:41:50;;;;;;;3.00;1.77;;;25.30;60.70;;;;;;4491839;31;20143;-70
2022/06/25 08:44:16;;;;;;;4.43;2.15;;;25.30;60.20;;;;;;4491029;31;20069;-71
2022/06/25 08:46:42;;;;;;;3.95;1.98;;;25.30;60.00;;;;;;4492163;31;20072;-71
2022/06/25 08:49:09;;;;;;;3.65;1.80;;;25.30;60.00;;;;;;4491041;31;20080;-71
2022/06/25 08:51:38;;;;;;;4.10;1.70;;;25.30;60.00;;;;;;4492099;31;20096;-71
2022/06/25 08:54:07;;;;;;;5.22;2.05;;;25.30;60.00;;;;;;4490793;31;20388;-70
2022/06/25 08:56:35;;;;;;;3.75;1.83;;;25.30;59.90;;;;;;4491730;31;20095;-71
2022/06/25 08:59:02;;;;;;;5.78;1.77;;;25.30;59.60;;;;;;4491980;31;20092;-71
2022/06/25 09:01:27;;;;;;;2.83;1.45;;;25.30;59.40;;;;;;4492051;31;20132;-71
2022/06/25 09:03:53;;;;;;;2.28;1.30;;;25.30;59.30;;;;;;4492007;31;20057;-70
2022/06/25 09:06:21;;;;;;;4.47;1.67;;;25.20;59.00;;;;;;4492194;31;20065;-70
2022/06/25 09:09:15;;;;;;;3.47;1.52;;;25.20;59.00;;;;;;4491895;31;20269;-71
2022/06/25 09:12:04;;;;;;;2.35;1.38;;;25.20;59.10;;;;;;4491707;31;20506;-71
2022/06/25 09:14:31;;;;;;;4.45;1.70;;;25.10;59.00;;;;;;4491669;32;20207;-70
2022/06/25 09:17:05;;;;;;;3.22;1.40;;;25.10;59.00;;;;;;4492054;32;20144;-70
2022/06/25 09:19:36;;;;;;;8.23;1.50;;;25.00;59.10;;;;;;4491665;32;20154;-70
2022/06/25 09:22:07;;;;;;;4.55;1.60;;;25.00;59.10;;;;;;4491949;32;20089;-71
2022/06/25 09:24:42;;;;;;;5.20;1.80;;;25.00;59.20;;;;;;4491529;32;20108;-71
2022/06/25 09:27:10;;;;;;;5.55;1.40;;;25.00;59.30;;;;;;4493506;31;20072;-71
2022/06/25 09:29:42;;;;;;;6.63;1.42;;;25.00;59.20;;;;;;4494995;31;20537;-71
2022/06/25 09:32:09;;;;;;;4.13;1.80;;;25.10;58.60;;;;;;4495135;31;20121;-71
2022/06/25 09:34:37;;;;;;;4.68;1.55;;;25.00;58.20;;;;;;4494968;31;20081;-71
2022/06/25 09:37:26;;;;;;;4.22;1.00;;;25.00;58.10;;;;;;4495137;31;20065;-70
2022/06/25 09:39:54;;;;;;;7.07;1.65;;;25.00;58.20;;;;;;4494806;31;20139;-70
2022/06/25 09:42:29;;;;;;;3.70;1.73;;;25.00;58.30;;;;;;4494830;31;20077;-70
2022/06/25 09:44:59;;;;;;;4.13;1.50;;;25.00;58.60;;;;;;4494761;31;20533;-71
2022/06/25 09:47:26;;;;;;;5.00;1.65;;;25.00;58.70;;;;;;4494978;31;20073;-70
2022/06/25 09:50:08;;;;;;;4.93;1.30;;;25.00;58.60;;;;;;4494651;31;20128;-71
2022/06/25 09:52:36;;;;;;;4.65;1.70;;;25.10;58.40;;;;;;4494756;31;20073;-71
2022/06/25 09:55:05;;;;;;;3.25;1.40;;;25.10;58.20;;;;;;4494640;31;20085;-71
2022/06/25 09:57:32;;;;;;;3.05;1.17;;;25.10;57.90;;;;;;4494560;31;20093;-72
2022/06/25 10:00:00;;;;;;;3.55;1.30;;;25.20;57.80;;;;;;4494518;31;20263;-71
2022/06/25 10:02:30;;;;;;;2.90;1.30;;;25.20;57.50;;;;;;4494552;31;20095;-71
2022/06/25 10:05:03;;;;;;;2.40;1.20;;;25.20;57.30;;;;;;4494682;31;20068;-70
2022/06/25 10:10:20;;;;;;;4.10;1.50;;;25.20;57.20;;;;;;4494748;31;20207;-70
2022/06/25 10:12:47;;;;;;;6.57;1.73;;;25.30;57.00;;;;;;4494397;31;20073;-70
2022/06/25 10:15:17;;;;;;;4.85;1.52;;;25.30;56.80;;;;;;4494094;31;20091;-70
2022/06/25 10:17:45;;;;;;;2.65;1.42;;;25.30;56.40;;;;;;4494191;31;20207;-71
2022/06/25 10:20:12;;;;;;;2.55;1.20;;;25.30;56.30;;;;;;4494087;31;20097;-71
2022/06/25 10:22:39;;;;;;;3.85;1.02;;;25.30;56.20;;;;;;4493820;31;20119;-70
2022/06/25 10:25:20;;;;;;;3.42;1.20;;;25.30;56.10;;;;;;4494060;31;20507;-70
2022/06/25 10:27:48;;;;;;;2.22;1.13;;;25.30;56.20;;;;;;4494392;31;20077;-70
2022/06/25 10:30:33;;;;;;;4.53;1.40;;;25.30;56.30;;;;;;4494128;31;20097;-73
2022/06/25 10:33:00;;;;;;;4.68;1.15;;;25.30;56.50;;;;;;4493960;31;20081;-70
2022/06/25 10:35:30;;;;;;;2.20;1.00;;;25.20;56.50;;;;;;4493913;31;20633;-70
2022/06/25 10:38:00;;;;;;;3.95;1.17;;;25.20;56.40;;;;;;4493098;31;20115;-70
2022/06/25 10:40:27;;;;;;;3.30;1.30;;;25.20;56.40;;;;;;4494568;31;20073;-70
2022/06/25 10:42:58;;;;;;;2.63;1.15;;;25.30;55.90;;;;;;4494213;31;20073;-70
2022/06/25 10:45:24;;;;;;;3.67;1.08;;;25.20;55.80;;;;;;4494161;31;20391;-71
2022/06/25 10:47:56;;;;;;;2.00;0.93;;;25.20;55.80;;;;;;4494205;31;20563;-70
2022/06/25 10:50:22;;;;;;;3.25;0.93;;;25.20;55.90;;;;;;4494342;31;20077;-70
2022/06/25 10:53:11;;;;;;;2.92;1.10;;;25.30;56.00;;;;;;4493821;31;20081;-70
2022/06/25 10:55:40;;;;;;;1.48;1.00;;;25.30;56.00;;;;;;4487324;31;20198;-70
2022/06/25 10:58:13;;;;;;;2.35;1.08;;;25.30;56.00;;;;;;4493850;31;20077;-71
2022/06/25 11:00:51;;;;;;;1.35;0.80;;;25.30;56.00;;;;;;4493946;31;20095;-72
2022/06/25 11:03:37;;;;;;;6.68;1.20;;;25.30;55.90;;;;;;4493988;31;20567;-71
2022/06/25 11:06:22;;;;;;;2.20;1.02;;;25.30;55.70;;;;;;4493278;31;20100;-71
2022/06/25 11:08:49;;;;;;;3.10;1.05;;;25.40;55.80;;;;;;4493638;31;20123;-73
2022/06/25 11:11:29;;;;;;;4.82;1.08;;;25.40;55.70;;;;;;4493691;31;20081;-71
2022/06/25 11:13:57;;;;;;;2.95;0.80;;;25.50;55.60;;;;;;4493876;31;20077;-71
2022/06/25 11:16:23;;;;;;;1.83;0.70;;;25.50;55.30;;;;;;4493463;31;20148;-71
2022/06/25 11:18:53;;;;;;;3.00;0.80;;;25.50;55.30;;;;;;4493616;31;20494;-71
2022/06/25 11:21:36;;;;;;;5.30;0.95;;;25.50;55.40;;;;;;4493329;31;20077;-71
2022/06/25 11:24:09;;;;;;;2.25;1.05;;;25.50;55.60;;;;;;4493631;31;20093;-71
2022/06/25 11:29:25;;;;;;;1.48;0.52;;;25.40;56.00;;;;;;4493284;31;20388;-71
2022/06/25 11:31:52;;;;;;;4.18;0.95;;;25.30;56.00;;;;;;4493134;31;20069;-71
2022/06/25 11:34:19;;;;;;;2.38;0.90;;;25.30;56.20;;;;;;4493045;31;20168;-72
2022/06/25 11:36:55;;;;;;;2.15;0.80;;;25.30;56.40;;;;;;4493411;31;20101;-71
2022/06/25 11:39:21;;;;;;;1.13;0.70;;;25.30;57.50;;;;;;4493037;31;20154;-71
2022/06/25 11:41:51;;;;;;;3.00;1.13;;;25.20;56.70;;;;;;4493129;31;20166;-71
2022/06/25 11:44:18;;;;;;;2.45;1.00;;;25.20;56.90;;;;;;4492873;31;20096;-71
2022/06/25 11:46:44;;;;;;;1.75;0.80;;;25.20;57.00;;;;;;4491918;31;20069;-71
2022/06/25 11:49:12;;;;;;;3.38;1.02;;;25.10;57.10;;;;;;4492642;31;20238;-71
2022/06/25 11:51:50;;;;;;;4.50;1.38;;;25.10;57.30;;;;;;4492592;31;20097;-71
2022/06/25 11:54:19;;;;;;;1.85;0.90;;;25.10;57.30;;;;;;4493253;31;20507;-71
2022/06/25 11:56:54;;;;;;;2.75;1.02;;;25.10;57.50;;;;;;4492797;31;20083;-71
2022/06/25 11:59:24;;;;;;;1.63;1.00;;;25.00;57.50;;;;;;4493111;31;20068;-71
2022/06/25 12:01:50;;;;;;;1.58;0.88;;;25.00;57.70;;;;;;4492923;31;20093;-71
2022/06/25 12:04:17;;;;;;;1.42;1.00;;;25.00;57.80;;;;;;4492662;31;20174;-71
2022/06/25 12:06:45;;;;;;;2.58;1.00;;;25.00;57.80;;;;;;4492810;31;20106;-71
2022/06/25 12:09:12;;;;;;;1.85;1.20;;;25.00;57.80;;;;;;4492350;31;20073;-71
2022/06/25 12:11:38;;;;;;;2.08;0.80;;;25.00;57.80;;;;;;4492472;31;20654;-71
2022/06/25 12:14:05;;;;;;;1.73;0.95;;;25.00;58.00;;;;;;4491480;31;20084;-71
2022/06/25 12:16:44;;;;;;;2.63;1.10;;;25.00;58.00;;;;;;4492488;31;20510;-71
2022/06/25 12:19:09;;;;;;;1.27;0.95;;;25.00;58.10;;;;;;4492562;31;20093;-71
2022/06/25 12:21:36;;;;;;;4.53;1.30;;;25.00;58.10;;;;;;4492153;31;20120;-71
2022/06/25 12:24:06;;;;;;;2.67;1.00;;;25.00;58.10;;;;;;4492462;31;20099;-70
2022/06/25 12:26:36;;;;;;;2.05;0.95;;;25.00;58.30;;;;;;4491372;31;20162;-71
2022/06/25 12:29:15;;;;;;;2.65;1.10;;;25.00;58.40;;;;;;4492330;31;20099;-71
2022/06/25 12:31:54;;;;;;;3.28;1.10;;;25.00;58.40;;;;;;4492652;31;20092;-71
2022/06/25 12:34:20;;;;;;;2.90;1.20;;;25.00;58.50;;;;;;4492347;31;20077;-71
2022/06/25 12:36:48;;;;;;;2.38;0.77;;;24.90;58.50;;;;;;4492286;31;20162;-70
2022/06/25 12:39:34;;;;;;;3.30;0.80;;;24.90;58.50;;;;;;4491926;31;20085;-71
2022/06/25 12:42:07;;;;;;;1.65;0.80;;;24.90;58.60;;;;;;4492303;31;20081;-70
2022/06/25 12:44:36;;;;;;;3.17;1.03;;;24.90;58.60;;;;;;4491859;31;20481;-70
2022/06/25 12:47:05;;;;;;;5.43;1.02;;;24.90;58.70;;;;;;4492141;31;20202;-71
2022/06/25 12:49:46;;;;;;;2.50;0.80;;;24.90;58.80;;;;;;4492134;31;20095;-70
2022/06/25 12:52:19;;;;;;;1.75;0.90;;;24.80;58.80;;;;;;4492247;31;20069;-70
2022/06/25 12:54:53;;;;;;;1.90;1.08;;;24.80;58.90;;;;;;4492516;31;20088;-69
2022/06/25 12:57:31;;;;;;;1.50;1.00;;;24.80;59.00;;;;;;4492314;31;20085;-69
2022/06/25 13:00:00;;;;;;;2.88;1.08;;;24.80;59.00;;;;;;4492344;31;20079;-70
2022/06/25 13:02:26;;;;;;;1.45;0.95;;;24.80;59.00;;;;;;4491779;31;20274;-73
2022/06/25 13:04:53;;;;;;;2.05;0.82;;;24.80;59.10;;;;;;4491848;31;20214;-70